Time;durP1;ratioP1;P1;durP2;ratioP2;P2;SDS_P1;SDS_P2;PMS_P1;PMS_P2;Temp;Humidity;BMP_temperature;BMP_pressure;BME280_temperature;BME280_humidity;BME280_pressure;Samples;Min_cycle;Max_cycle;Signal;HPM_P1;HPM_P2
2022/12/17 13:06:53;;;;;;;98.50;35.90;;;;;;;-2.67;80.61;98927.80;102487;1304;138315;-77
2022/12/17 13:09:26;;;;;;;106.90;38.90;;;;;;;-2.76;80.98;98930.78;103354;1310;22760;-77
2022/12/17 13:12:01;;;;;;;99.30;38.10;;;;;;;-2.80;81.26;98929.77;102988;1288;139045;-78
2022/12/17 13:14:46;;;;;;;95.20;38.50;;;;;;;-2.83;81.74;98932.17;103631;1294;22482;-77
2022/12/17 13:17:13;;;;;;;92.80;35.00;;;;;;;-2.84;81.87;98934.55;103257;1287;139926;-77
2022/12/17 13:19:43;;;;;;;96.70;36.70;;;;;;;-2.86;81.91;98943.83;103310;1289;22619;-77
2022/12/17 13:22:13;;;;;;;89.80;35.40;;;;;;;-2.88;81.93;98948.32;103144;1294;25286;-77
2022/12/17 13:24:52;;;;;;;101.70;38.60;;;;;;;-2.89;82.11;98944.65;103122;1288;138079;-77
2022/12/17 13:27:39;;;;;;;109.10;41.00;;;;;;;-2.92;82.25;98952.96;103408;1306;22615;-77
2022/12/17 13:30:21;;;;;;;88.40;31.90;;;;;;;-2.96;82.11;98953.38;102894;1280;138447;-77
2022/12/17 13:33:20;;;;;;;97.90;36.20;;;;;;;-3.03;82.12;98954.89;103468;1287;25467;-77
2022/12/17 13:36:02;;;;;;;;;;;;;;;-3.08;82.58;98957.26;102990;1288;138528;-77
2022/12/17 13:38:35;;;;;;;83.20;34.10;;;;;;;-3.11;82.78;98958.84;103301;1302;22573;-77
2022/12/17 13:41:17;;;;;;;97.30;34.40;;;;;;;-3.18;82.88;98963.75;103325;1303;139509;-77
2022/12/17 13:43:47;;;;;;;92.50;35.10;;;;;;;-3.25;83.16;98976.67;103172;1309;22617;-77
2022/12/17 13:46:26;;;;;;;92.40;35.50;;;;;;;-3.31;83.24;98984.80;103082;1289;25183;-77
2022/12/17 13:48:58;;;;;;;;;;;;;;;-3.35;83.55;98986.13;103128;1310;22463;-77
2022/12/17 13:51:31;;;;;;;79.80;29.70;;;;;;;-3.39;83.70;98987.05;103405;1306;22704;-77
2022/12/17 13:54:00;;;;;;;92.50;34.10;;;;;;;-3.45;84.07;98991.66;103054;1296;140556;-77
2022/12/17 13:56:29;;;;;;;84.30;33.10;;;;;;;-3.49;84.17;98998.05;103144;1305;22620;-77
2022/12/17 13:58:58;;;;;;;91.70;35.90;;;;;;;-3.52;84.35;98998.88;103152;1288;138543;-77
2022/12/17 14:01:25;;;;;;;90.80;37.00;;;;;;;-3.53;84.94;99004.63;103717;1298;25396;-77
2022/12/17 14:03:55;;;;;;;93.00;35.00;;;;;;;-3.53;84.96;99007.46;103193;1297;22481;-77
2022/12/17 14:06:26;;;;;;;103.50;36.90;;;;;;;-3.52;85.03;99018.61;102975;1288;138428;-77
2022/12/17 14:08:56;;;;;;;89.80;35.50;;;;;;;-3.52;85.49;99022.83;103215;1310;24434;-77
2022/12/17 14:14:37;;;;;;;86.40;33.70;;;;;;;-3.51;85.36;99029.30;103726;1290;24506;-77
2022/12/17 14:17:04;;;;;;;89.00;33.40;;;;;;;-3.51;85.85;99029.50;103116;1300;139096;-77
2022/12/17 14:19:33;;;;;;;96.60;34.20;;;;;;;-3.51;85.94;99040.30;104172;1310;25215;-77
2022/12/17 14:22:00;;;;;;;95.30;36.20;;;;;;;-3.53;86.13;99039.23;103672;1310;22489;-77
2022/12/17 14:24:28;;;;;;;88.70;36.50;;;;;;;-3.54;85.96;99042.52;103148;1281;138908;-77
2022/12/17 14:26:58;;;;;;;89.70;34.20;;;;;;;-3.58;86.12;99045.73;103675;1281;22492;-77
2022/12/17 14:29:30;;;;;;;94.50;38.10;;;;;;;-3.59;86.11;99051.73;103781;1289;140381;-77
2022/12/17 14:32:15;;;;;;;91.20;35.50;;;;;;;-3.62;86.33;99056.34;103944;1295;24251;-76
2022/12/17 14:34:42;;;;;;;90.40;34.60;;;;;;;-3.64;86.48;99060.94;103548;1286;138330;-77
2022/12/17 14:37:24;;;;;;;90.50;32.20;;;;;;;-3.67;86.51;99063.35;103855;1288;22510;-77
2022/12/17 14:39:57;;;;;;;98.10;37.30;;;;;;;-3.70;86.81;99075.56;103563;1287;22343;-77
2022/12/17 14:42:25;;;;;;;90.60;35.50;;;;;;;-3.72;86.85;99079.51;103939;1290;138478;-76
2022/12/17 14:45:01;;;;;;;89.70;35.70;;;;;;;-3.74;87.25;99083.06;103841;1288;22472;-77
2022/12/17 14:47:33;;;;;;;94.60;34.50;;;;;;;-3.73;87.16;99083.29;103670;1310;138584;-76
2022/12/17 14:50:05;;;;;;;93.10;34.40;;;;;;;-3.74;87.45;99088.89;103373;1281;22494;-76
2022/12/17 14:52:48;;;;;;;101.50;35.50;;;;;;;-3.77;87.33;99089.81;103413;1295;140014;-77
2022/12/17 14:55:46;;;;;;;93.60;35.30;;;;;;;-3.79;87.35;99089.02;103714;1284;22602;-76
2022/12/17 14:58:16;;;;;;;87.80;34.80;;;;;;;-3.80;87.81;99090.88;103316;1304;23058;-76
2022/12/17 15:00:55;;;;;;;88.10;34.60;;;;;;;-3.83;87.86;99095.66;103214;1282;139260;-76
2022/12/17 15:03:30;;;;;;;101.50;35.20;;;;;;;-3.84;87.49;99103.03;103819;1310;25427;-76
2022/12/17 15:06:06;;;;;;;99.90;36.70;;;;;;;-3.87;87.65;99106.38;102928;1289;140581;-76
2022/12/17 15:08:42;;;;;;;99.10;37.40;;;;;;;-3.89;88.04;99110.73;103023;1310;24256;-76
2022/12/17 15:11:14;;;;;;;100.40;36.10;;;;;;;-3.90;88.46;99115.47;102880;1295;138602;-77
2022/12/17 15:13:41;;;;;;;94.20;36.60;;;;;;;-3.91;88.33;99114.98;103579;1295;23442;-76
2022/12/17 15:16:09;;;;;;;94.40;37.50;;;;;;;-3.93;88.17;99115.55;103016;1311;24338;-76
2022/12/17 15:18:36;;;;;;;106.50;38.10;;;;;;;-3.93;88.64;99114.20;103155;1297;138390;-76
2022/12/17 15:21:04;;;;;;;100.90;37.90;;;;;;;-3.94;88.82;99119.80;102982;1310;22478;-76
2022/12/17 15:23:32;;;;;;;101.10;37.40;;;;;;;-3.96;88.76;99121.67;102985;1294;139526;-77
2022/12/17 15:25:59;;;;;;;104.60;36.90;;;;;;;-3.98;88.83;99126.66;103153;1300;22484;-76
2022/12/17 15:28:26;;;;;;;108.60;38.00;;;;;;;-3.99;88.84;99131.19;103288;1289;25788;-76
2022/12/17 15:30:53;;;;;;;108.40;38.80;;;;;;;-4.00;89.25;99137.65;103190;1289;22473;-76
2022/12/17 15:33:20;;;;;;;109.00;38.20;;;;;;;-4.00;88.88;99140.70;103092;1298;25459;-77
2022/12/17 15:35:47;;;;;;;104.30;37.90;;;;;;;-4.00;89.07;99147.27;103179;1287;138573;-76
2022/12/17 15:38:14;;;;;;;111.50;39.90;;;;;;;-4.02;89.05;99150.92;103294;1287;22528;-76
2022/12/17 15:40:41;;;;;;;108.70;40.90;;;;;;;-4.03;89.32;99152.29;103001;1295;142281;-76
2022/12/17 15:43:10;;;;;;;109.50;40.20;;;;;;;-4.04;89.43;99150.43;103366;1295;22528;-76
2022/12/17 15:45:45;;;;;;;102.50;38.50;;;;;;;-4.05;89.31;99150.17;103409;1310;22500;-76
2022/12/17 15:48:18;;;;;;;106.40;40.40;;;;;;;-4.07;89.49;99154.17;103012;1304;138419;-76
2022/12/17 15:50:45;;;;;;;114.90;41.10;;;;;;;-4.06;89.92;99157.14;103033;1303;25386;-76
2022/12/17 15:53:12;;;;;;;109.40;39.30;;;;;;;-4.08;89.72;99163.52;103131;1286;138633;-75
2022/12/17 15:55:40;;;;;;;113.80;40.60;;;;;;;-4.09;90.06;99163.80;103021;1287;22707;-77
2022/12/17 15:58:10;;;;;;;113.60;40.90;;;;;;;-4.09;89.80;99163.08;103008;1280;25361;-74
2022/12/17 16:00:37;;;;;;;99.00;36.00;;;;;;;-4.09;89.75;99162.40;103267;1302;138550;-75
2022/12/17 16:03:04;;;;;;;111.60;39.70;;;;;;;-4.10;89.90;99167.60;103062;1281;25330;-75
2022/12/17 16:05:31;;;;;;;115.60;40.20;;;;;;;-4.11;89.74;99170.02;103020;1284;139114;-75
2022/12/17 16:08:01;;;;;;;109.40;40.90;;;;;;;-4.11;90.17;99177.84;103031;1284;25360;-72
2022/12/17 16:10:28;;;;;;;114.10;41.20;;;;;;;-4.12;90.01;99176.80;103212;1295;24440;-75
2022/12/17 16:12:55;;;;;;;125.30;41.80;;;;;;;-4.11;90.07;99179.89;103107;1310;25495;-75
2022/12/17 16:15:22;;;;;;;120.10;43.30;;;;;;;-4.11;90.12;99184.34;103127;1310;25570;-77
2022/12/17 16:17:49;;;;;;;98.30;34.80;;;;;;;-4.10;90.35;99194.25;102974;1310;139095;-77
2022/12/17 16:20:16;;;;;;;126.70;42.00;;;;;;;-4.13;90.11;99194.67;103345;1306;24039;-76
2022/12/17 16:22:43;;;;;;;109.70;40.20;;;;;;;-4.14;90.27;99192.63;102914;1287;140820;-76
2022/12/17 16:25:10;;;;;;;119.50;40.20;;;;;;;-4.15;90.44;99194.65;103049;1289;24429;-76
2022/12/17 16:27:37;;;;;;;122.50;42.00;;;;;;;-4.15;90.44;99194.27;102979;1310;24253;-77
2022/12/17 16:30:05;;;;;;;117.80;42.60;;;;;;;-4.14;90.58;99200.06;102620;1291;138657;-77
2022/12/17 16:32:32;;;;;;;118.90;43.40;;;;;;;-4.14;90.65;99201.65;103056;1288;26607;-76
2022/12/17 16:34:59;;;;;;;123.20;39.50;;;;;;;-4.15;90.28;99209.15;102899;1296;138579;-77
2022/12/17 16:37:26;;;;;;;114.80;39.40;;;;;;;-4.16;90.42;99211.04;102987;1304;22488;-77
2022/12/17 16:39:53;;;;;;;119.80;42.20;;;;;;;-4.16;90.46;99217.09;102998;1287;22470;-76
2022/12/17 16:42:20;;;;;;;112.80;39.70;;;;;;;-4.17;90.93;99219.83;102878;1310;138943;-76
2022/12/17 16:44:47;;;;;;;116.30;41.30;;;;;;;-4.18;90.56;99224.85;103059;1288;22516;-76
2022/12/17 16:47:14;;;;;;;120.20;44.20;;;;;;;-4.17;90.54;99223.75;103079;1310;138652;-76
2022/12/17 16:49:41;;;;;;;120.70;44.00;;;;;;;-4.17;90.87;99225.85;102995;1295;25365;-76
2022/12/17 16:52:07;;;;;;;117.90;42.40;;;;;;;-4.17;90.78;99230.59;103194;1287;22506;-76
2022/12/17 16:54:34;;;;;;;116.40;39.80;;;;;;;-4.16;90.92;99229.84;102943;1287;138635;-76
2022/12/17 16:57:01;;;;;;;108.20;38.60;;;;;;;-4.15;90.83;99229.75;103249;1294;25301;-76
2022/12/17 16:59:29;;;;;;;119.90;42.20;;;;;;;-4.15;91.02;99230.13;103053;1311;138351;-76
2022/12/17 17:01:56;;;;;;;116.00;40.00;;;;;;;-4.16;90.91;99234.29;103143;1307;22755;-76
2022/12/17 17:04:23;;;;;;;105.10;36.40;;;;;;;-4.17;91.15;99239.65;103135;1294;25340;-77
2022/12/17 17:06:53;;;;;;;113.30;40.60;;;;;;;-4.17;90.68;99246.23;102917;1310;138351;-77
2022/12/17 17:09:22;;;;;;;121.70;43.40;;;;;;;-4.18;91.22;99246.14;103686;1289;22490;-77
2022/12/17 17:11:49;;;;;;;129.70;45.10;;;;;;;-4.19;90.67;99244.41;103214;1309;139846;-77
2022/12/17 17:14:17;;;;;;;133.30;46.90;;;;;;;-4.18;91.03;99246.15;103008;1296;23892;-77
2022/12/17 17:16:44;;;;;;;133.90;43.20;;;;;;;-4.17;91.10;99252.11;102973;1284;138754;-76
2022/12/17 17:19:11;;;;;;;122.00;43.50;;;;;;;-4.18;90.96;99259.80;103176;1310;23322;-76
2022/12/17 17:21:40;;;;;;;118.40;40.30;;;;;;;-4.19;91.15;99262.52;103006;1310;22601;-76
2022/12/17 17:24:16;;;;;;;133.20;42.60;;;;;;;-4.21;91.52;99265.31;102897;1312;138382;-77
2022/12/17 17:26:43;;;;;;;127.50;43.10;;;;;;;-4.20;91.39;99269.15;102658;1311;22478;-76
2022/12/17 17:29:11;;;;;;;132.90;44.50;;;;;;;-4.21;91.02;99272.58;103199;1294;138730;-76
2022/12/17 17:31:38;;;;;;;133.60;44.90;;;;;;;-4.20;91.17;99277.69;103200;1302;25313;-76
2022/12/17 17:34:10;;;;;;;133.30;47.10;;;;;;;-4.18;91.63;99279.31;103189;1302;22492;-77
2022/12/17 17:36:39;;;;;;;126.70;43.70;;;;;;;-4.18;91.59;99288.73;103105;1310;139932;-77
2022/12/17 17:39:06;;;;;;;137.00;46.40;;;;;;;-4.18;91.86;99286.73;103215;1290;25270;-76
2022/12/17 17:41:34;;;;;;;123.50;39.50;;;;;;;-4.18;91.73;99288.52;102934;1297;140265;-77
2022/12/17 17:44:04;;;;;;;115.80;39.10;;;;;;;-4.18;91.69;99285.84;103055;1289;22644;-77
2022/12/17 17:46:33;;;;;;;137.90;42.50;;;;;;;-4.17;91.70;99289.55;103643;1309;24432;-76
2022/12/17 17:49:04;;;;;;;140.30;43.30;;;;;;;-4.18;91.85;99292.20;103368;1297;78793;-77
2022/12/17 17:51:33;;;;;;;127.80;43.10;;;;;;;-4.17;91.73;99299.81;104500;1302;23110;-77
2022/12/17 17:54:02;;;;;;;127.40;45.60;;;;;;;-4.18;91.28;99301.60;103075;1291;138467;-77
2022/12/17 17:56:32;;;;;;;128.60;41.50;;;;;;;-4.17;91.09;99306.48;103517;1294;25324;-77
2022/12/17 17:59:02;;;;;;;139.40;43.50;;;;;;;-4.12;92.55;99312.49;103219;1310;138722;-74
2022/12/17 18:01:35;;;;;;;136.10;42.20;;;;;;;-3.89;94.85;99318.89;103131;1285;22563;-75
2022/12/17 18:04:03;;;;;;;131.00;43.60;;;;;;;-3.62;95.06;99326.51;103386;1281;24255;-73
2022/12/17 18:06:31;;;;;;;131.60;42.70;;;;;;;-3.38;94.87;99332.70;103045;1305;138418;-76
2022/12/17 18:08:58;;;;;;;131.10;41.20;;;;;;;-3.30;92.22;99331.80;103147;1297;22464;-77
2022/12/17 18:11:28;;;;;;;116.20;39.50;;;;;;;-3.35;90.69;99332.79;102924;1310;138633;-76
2022/12/17 18:13:56;;;;;;;107.90;35.30;;;;;;;-3.44;89.83;99336.23;103270;1287;25334;-77
2022/12/17 18:16:29;;;;;;;124.40;38.40;;;;;;;-3.56;89.40;99334.11;103200;1305;22490;-77
2022/12/17 18:18:59;;;;;;;124.60;39.30;;;;;;;-3.68;89.17;99332.34;103375;1294;138599;-77
2022/12/17 18:21:27;;;;;;;123.60;39.50;;;;;;;-3.78;89.48;99334.60;103143;1295;25390;-77
2022/12/17 18:24:00;;;;;;;122.10;36.60;;;;;;;-3.85;89.38;99338.69;103381;1288;139036;-77
2022/12/17 18:26:31;;;;;;;119.10;37.30;;;;;;;-3.91;89.46;99342.77;103218;1297;23389;-77
2022/12/17 18:29:01;;;;;;;116.90;35.70;;;;;;;-3.95;89.42;99355.76;103266;1297;138727;-77
2022/12/17 18:31:29;;;;;;;105.40;34.20;;;;;;;-4.01;89.69;99357.82;103101;1299;22486;-78
2022/12/17 18:33:58;;;;;;;115.40;36.80;;;;;;;-4.06;89.57;99364.81;103155;1294;24046;-77
2022/12/17 18:36:28;;;;;;;107.00;34.20;;;;;;;-4.11;89.58;99367.55;103137;1287;139740;-77
2022/12/17 18:39:01;;;;;;;122.40;37.60;;;;;;;-4.16;90.07;99368.50;103086;1297;22495;-78
2022/12/17 18:44:16;;;;;;;111.80;33.30;;;;;;;-4.24;89.78;99378.73;103253;1304;22905;-78
2022/12/17 18:46:44;;;;;;;;;;;;;;;-4.28;89.71;99380.66;103017;1289;23870;-78
2022/12/17 18:49:19;;;;;;;110.00;33.20;;;;;;;-4.31;90.17;99391.73;103428;1289;25410;-78
2022/12/17 18:51:48;;;;;;;103.30;33.20;;;;;;;-4.35;90.12;99390.63;103722;1292;22491;-79
2022/12/17 18:54:19;;;;;;;100.70;30.70;;;;;;;-4.39;89.96;99396.64;104411;1288;138547;-79
2022/12/17 18:56:45;;;;;;;114.50;34.10;;;;;;;-4.42;90.08;99403.43;104324;1302;25353;-79
2022/12/17 18:59:14;;;;;;;106.60;34.30;;;;;;;-4.45;90.05;99400.48;103607;1287;139873;-78
2022/12/17 19:01:42;;;;;;;107.80;32.50;;;;;;;-4.46;90.24;99402.88;104045;1289;23100;-79
2022/12/17 19:04:12;;;;;;;112.40;34.00;;;;;;;-4.49;90.29;99408.05;103104;1282;22479;-79
2022/12/17 19:06:40;;;;;;;124.50;38.10;;;;;;;-4.49;90.21;99402.77;103219;1301;138849;-78
2022/12/17 19:09:14;;;;;;;113.60;35.70;;;;;;;-4.48;90.01;99404.66;103776;1280;22492;-79
2022/12/17 19:11:41;;;;;;;98.40;33.50;;;;;;;-4.50;90.44;99408.14;103953;1301;139757;-79
2022/12/17 19:14:08;;;;;;;115.50;35.20;;;;;;;-4.52;90.20;99415.21;103686;1288;23220;-79
2022/12/17 19:16:35;;;;;;;131.20;38.80;;;;;;;-4.53;90.56;99411.42;103189;1295;22648;-78
2022/12/17 19:19:03;;;;;;;127.80;37.90;;;;;;;-4.54;90.15;99416.42;103268;1288;140369;-79
2022/12/17 19:21:32;;;;;;;108.70;32.20;;;;;;;-4.54;90.37;99419.33;103579;1286;26546;-79
2022/12/17 19:24:02;;;;;;;106.30;33.20;;;;;;;-4.55;90.37;99429.49;103460;1286;138768;-79
2022/12/17 19:26:30;;;;;;;108.30;31.40;;;;;;;-4.61;89.59;99435.23;104873;1291;22515;-80
2022/12/17 19:28:58;;;;;;;97.10;29.00;;;;;;;-4.67;89.61;99441.91;103760;1312;140347;-80
2022/12/17 19:31:29;;;;;;;98.20;33.40;;;;;;;-4.70;89.78;99447.51;105577;1304;22407;-79
2022/12/17 19:34:02;;;;;;;106.60;30.20;;;;;;;-4.73;89.33;99453.28;104593;1289;23341;-79
2022/12/17 19:36:30;;;;;;;110.40;34.60;;;;;;;-4.77;89.43;99457.96;104075;1288;142034;-79
2022/12/17 19:39:00;;;;;;;109.20;31.80;;;;;;;-4.79;89.55;99461.47;105064;1297;22764;-79
2022/12/17 19:41:28;;;;;;;105.50;32.20;;;;;;;-4.81;89.94;99462.39;103143;1309;140147;-79
2022/12/17 19:43:58;;;;;;;108.10;33.50;;;;;;;-4.83;89.51;99466.77;104834;1310;25453;-79
2022/12/17 19:46:26;;;;;;;97.90;30.70;;;;;;;-4.86;89.47;99472.84;103263;1303;22473;-79
2022/12/17 19:48:53;;;;;;;106.50;32.20;;;;;;;-4.89;89.21;99475.75;102538;1310;1298374;-79
2022/12/17 19:51:22;;;;;;;95.90;31.00;;;;;;;-4.93;89.47;99479.23;103156;1297;22468;-79
2022/12/17 19:53:50;;;;;;;;;;;;;;;-4.96;89.32;99484.05;103302;1295;138498;-79
2022/12/17 19:56:21;;;;;;;95.50;29.70;;;;;;;-4.97;89.01;99487.52;104321;1300;22260;-79
2022/12/17 19:58:51;;;;;;;107.20;33.30;;;;;;;-5.02;89.19;99486.48;104859;1308;22233;-79
2022/12/17 20:01:32;;;;;;;104.90;30.90;;;;;;;-5.03;89.25;99491.73;105302;1289;138517;-79
2022/12/17 20:03:59;;;;;;;98.10;31.20;;;;;;;-5.05;89.14;99491.54;103686;1282;23391;-79
2022/12/17 20:06:30;;;;;;;99.40;30.50;;;;;;;-5.06;89.34;99495.50;103777;1310;138516;-78
2022/12/17 20:08:58;;;;;;;95.30;29.30;;;;;;;-5.08;89.59;99497.77;103697;1295;22279;-79
2022/12/17 20:11:32;;;;;;;103.40;31.10;;;;;;;-5.09;88.95;99497.11;103238;1294;139614;-79
2022/12/17 20:14:07;;;;;;;111.70;35.00;;;;;;;-5.10;89.17;99503.47;103490;1300;22528;-79
2022/12/17 20:16:37;;;;;;;96.50;32.90;;;;;;;-5.11;89.29;99511.45;103640;1303;22492;-78
2022/12/17 20:19:06;;;;;;;106.70;32.10;;;;;;;-5.10;89.26;99515.95;103787;1289;140052;-79
2022/12/17 20:21:33;;;;;;;96.20;31.80;;;;;;;-5.10;89.35;99518.84;105079;1291;22479;-79
2022/12/17 20:24:00;;;;;;;84.30;26.00;;;;;;;-5.12;89.16;99521.08;104480;1289;138563;-79
2022/12/17 20:26:28;;;;;;;88.40;28.50;;;;;;;-5.13;88.90;99528.09;103657;1289;25290;-79
2022/12/17 20:28:55;;;;;;;88.60;27.50;;;;;;;-5.15;89.21;99530.71;103390;1288;139842;-78
2022/12/17 20:31:22;;;;;;;79.80;27.60;;;;;;;-5.16;88.67;99534.85;103296;1304;25250;-79
2022/12/17 20:33:49;;;;;;;91.40;27.60;;;;;;;-5.17;88.92;99539.54;103162;1301;22596;-79
2022/12/17 20:36:18;;;;;;;81.20;24.40;;;;;;;-5.17;88.57;99541.50;103047;1304;139905;-78
2022/12/17 20:38:45;;;;;;;;;;;;;;;-5.19;88.96;99547.30;102948;1300;22469;-78
2022/12/17 20:41:18;;;;;;;58.00;20.40;;;;;;;-5.21;88.99;99551.70;104066;1289;125440;-79
2022/12/17 20:43:46;;;;;;;79.60;26.30;;;;;;;-5.23;89.42;99555.75;103167;1287;25340;-78
2022/12/17 20:46:13;;;;;;;83.70;27.20;;;;;;;-5.24;88.75;99558.84;103124;1289;25349;-78
2022/12/17 20:48:42;;;;;;;81.50;27.30;;;;;;;-5.22;89.41;99565.11;103204;1285;138572;-78
2022/12/17 20:51:16;;;;;;;82.40;27.80;;;;;;;-5.22;89.42;99568.44;103183;1312;22517;-78
2022/12/17 20:53:44;;;;;;;78.60;25.80;;;;;;;-5.22;89.64;99575.28;103471;1294;140555;-78
2022/12/17 20:56:17;;;;;;;80.60;25.90;;;;;;;-5.21;89.55;99579.50;103605;1311;22549;-79
2022/12/17 20:58:45;;;;;;;82.10;25.40;;;;;;;-5.21;89.39;99583.22;103414;1304;22494;-78
2022/12/17 21:01:20;;;;;;;85.50;28.10;;;;;;;-5.21;89.82;99589.06;103575;1294;139932;-78
2022/12/17 21:03:49;;;;;;;73.40;26.30;;;;;;;-5.23;89.79;99595.01;103462;1289;25246;-78
2022/12/17 21:06:20;;;;;;;78.70;24.70;;;;;;;-5.24;89.94;99597.75;103434;1310;138446;-78
2022/12/17 21:08:50;;;;;;;76.10;24.60;;;;;;;-5.25;89.70;99603.13;103597;1295;25979;-78
2022/12/17 21:11:19;;;;;;;77.10;24.80;;;;;;;-5.26;90.00;99601.29;103328;1297;138657;-78
2022/12/17 21:13:46;;;;;;;;;;;;;;;-5.27;89.76;99602.27;103426;1280;23378;-78
2022/12/17 21:16:20;;;;;;;74.10;25.20;;;;;;;-5.28;90.18;99600.02;103305;1287;23621;-78
2022/12/17 21:18:49;;;;;;;77.20;26.80;;;;;;;-5.29;90.45;99604.02;103458;1288;138988;-78
2022/12/17 21:21:20;;;;;;;75.00;26.10;;;;;;;-5.29;90.48;99611.99;103536;1289;24269;-79
2022/12/17 21:23:48;;;;;;;77.40;23.50;;;;;;;-5.28;90.14;99611.38;103082;1282;138835;-78
2022/12/17 21:26:37;;;;;;;76.60;26.20;;;;;;;-5.28;90.05;99613.48;103500;1303;22486;-78
2022/12/17 21:29:06;;;;;;;73.80;26.20;;;;;;;-5.28;90.30;99616.86;103084;1298;138767;-78
2022/12/17 21:31:36;;;;;;;80.90;26.10;;;;;;;-5.28;90.68;99619.34;103524;1305;22496;-78
2022/12/17 21:34:06;;;;;;;79.50;24.40;;;;;;;-5.28;89.94;99616.85;103377;1308;24372;-78
2022/12/17 21:36:33;;;;;;;;;;;;;;;-5.27;90.67;99623.14;103662;1288;138492;-78
2022/12/17 21:39:02;;;;;;;85.80;29.30;;;;;;;-5.27;90.27;99624.77;103212;1310;24273;-78
2022/12/17 21:41:33;;;;;;;88.10;28.10;;;;;;;-5.27;90.53;99625.65;104016;1289;140816;-78
2022/12/17 21:44:06;;;;;;;83.40;26.80;;;;;;;-5.29;90.47;99627.91;103799;1296;22604;-78
2022/12/17 21:46:33;;;;;;;87.10;28.00;;;;;;;-5.29;90.21;99635.31;103754;1289;26067;-78
2022/12/17 21:49:02;;;;;;;77.40;26.30;;;;;;;-5.29;90.48;99637.27;103401;1294;138565;-78
2022/12/17 21:51:30;;;;;;;74.70;25.80;;;;;;;-5.28;90.56;99642.84;103580;1288;22494;-79
2022/12/17 21:54:01;;;;;;;64.60;21.20;;;;;;;-5.29;90.77;99643.30;103009;1294;139008;-78
2022/12/17 21:56:28;;;;;;;68.80;25.60;;;;;;;-5.29;90.26;99645.98;103395;1294;24413;-79
2022/12/17 21:58:59;;;;;;;83.60;27.00;;;;;;;-5.29;90.32;99651.62;103173;1287;25258;-78
2022/12/17 22:01:30;;;;;;;72.20;24.50;;;;;;;-5.29;90.48;99662.23;104339;1294;25276;-79
2022/12/17 22:04:02;;;;;;;75.90;25.60;;;;;;;-5.29;90.63;99669.33;103171;1310;22484;-78
2022/12/17 22:06:31;;;;;;;70.30;25.20;;;;;;;-5.29;90.75;99676.95;103394;1311;140291;-79
2022/12/17 22:08:58;;;;;;;;;;;;;;;-5.29;90.37;99678.52;103203;1296;24405;-78
2022/12/17 22:11:26;;;;;;;76.00;25.40;;;;;;;-5.28;90.23;99680.77;103171;1310;124751;-78
2022/12/17 22:14:05;;;;;;;63.40;21.30;;;;;;;-5.29;90.63;99682.59;103455;1312;26121;-79
2022/12/17 22:16:45;;;;;;;68.60;24.40;;;;;;;-5.30;90.40;99682.28;103242;1289;25399;-78
2022/12/17 22:19:22;;;;;;;63.60;21.20;;;;;;;-5.30;89.94;99687.29;103215;1293;140933;-78
2022/12/17 22:21:51;;;;;;;66.70;24.20;;;;;;;-5.31;89.90;99691.56;103211;1310;24336;-78
2022/12/17 22:24:21;;;;;;;68.80;22.70;;;;;;;-5.30;89.69;99693.50;103343;1310;138510;-78
2022/12/17 22:26:48;;;;;;;64.40;23.60;;;;;;;-5.29;90.19;99696.04;103184;1304;24366;-78
2022/12/17 22:32:58;;;;;;;66.50;24.00;;;;;;;-5.28;90.12;99696.30;103085;1311;140087;-78
2022/12/17 22:34:48;;;;;;;67.10;22.60;;;;;;;-5.27;90.04;99696.23;103446;1298;22585;-78
2022/12/17 22:37:15;;;;;;;80.40;26.30;;;;;;;-5.26;90.18;99699.22;102908;1301;139099;-78
2022/12/17 22:39:42;;;;;;;72.30;25.50;;;;;;;-5.25;89.74;99701.25;103028;1312;22601;-78
2022/12/17 22:44:55;;;;;;;71.70;24.60;;;;;;;-5.23;90.55;99704.45;103120;1301;23031;-78
2022/12/17 22:47:22;;;;;;;75.60;26.50;;;;;;;-5.22;90.17;99710.39;103211;1285;138584;-79
2022/12/17 22:49:48;;;;;;;67.80;23.90;;;;;;;-5.22;90.12;99713.72;103091;1294;22502;-79
2022/12/17 22:52:15;;;;;;;75.10;25.90;;;;;;;-5.21;90.30;99716.83;103236;1312;22484;-78
2022/12/17 22:54:44;;;;;;;70.40;26.60;;;;;;;-5.20;90.24;99718.72;103154;1304;139052;-78
2022/12/17 22:57:11;;;;;;;78.80;24.50;;;;;;;-5.19;90.11;99717.40;103079;1289;23891;-79
2022/12/17 22:59:38;;;;;;;70.70;26.40;;;;;;;-5.18;90.13;99717.86;103517;1287;140034;-78
2022/12/17 23:02:06;;;;;;;76.20;27.20;;;;;;;-5.18;90.03;99723.33;103081;1311;25332;-78
2022/12/17 23:04:33;;;;;;;74.20;25.40;;;;;;;-5.16;90.07;99726.24;103275;1311;22476;-79
2022/12/17 23:07:01;;;;;;;77.00;27.00;;;;;;;-5.16;90.34;99729.00;103001;1310;138723;-78
2022/12/17 23:09:31;;;;;;;68.90;23.40;;;;;;;-5.14;90.54;99731.05;103078;1313;25391;-78
2022/12/17 23:12:49;;;;;;;73.50;25.80;;;;;;;-5.16;89.73;99729.92;103245;1304;138427;-79
2022/12/17 23:14:45;;;;;;;64.40;22.40;;;;;;;-5.15;90.37;99737.09;103324;1294;23391;-79
2022/12/17 23:17:12;;;;;;;66.10;22.60;;;;;;;-5.15;90.11;99740.11;103020;1288;140461;-78
2022/12/17 23:19:39;;;;;;;71.90;25.30;;;;;;;-5.14;89.98;99741.46;103194;1296;24472;-78
2022/12/17 23:22:05;;;;;;;74.40;25.50;;;;;;;-5.12;90.53;99750.92;103084;1306;23062;-78
2022/12/17 23:24:32;;;;;;;64.10;22.30;;;;;;;-5.12;89.89;99757.13;102927;1313;139067;-78
2022/12/17 23:26:59;;;;;;;72.10;24.80;;;;;;;-5.15;89.83;99755.36;103410;1295;23106;-78
2022/12/17 23:29:26;;;;;;;59.40;22.90;;;;;;;-5.14;90.01;99759.88;103090;1281;139340;-78
2022/12/17 23:31:53;;;;;;;68.00;23.70;;;;;;;-5.13;90.12;99758.44;103576;1303;23021;-79
2022/12/17 23:34:20;;;;;;;68.20;24.00;;;;;;;-5.12;89.93;99757.67;103062;1302;24472;-79
2022/12/17 23:36:48;;;;;;;63.80;23.90;;;;;;;-5.11;89.47;99761.45;103221;1309;139150;-78
2022/12/17 23:39:15;;;;;;;62.80;23.00;;;;;;;-5.10;89.75;99762.06;103172;1294;25315;-78
2022/12/17 23:41:42;;;;;;;66.60;25.30;;;;;;;-5.10;89.79;99765.98;103538;1295;139440;-79
2022/12/17 23:44:11;;;;;;;71.50;24.10;;;;;;;-5.09;89.37;99773.34;103373;1304;22600;-78
2022/12/17 23:46:38;;;;;;;64.90;22.80;;;;;;;-5.09;89.60;99778.48;103243;1285;24016;-79
2022/12/17 23:49:06;;;;;;;65.00;20.90;;;;;;;-5.10;89.56;99783.86;103238;1309;138693;-78
2022/12/17 23:51:33;;;;;;;68.00;25.50;;;;;;;-5.12;89.20;99783.09;103162;1310;22714;-78
2022/12/17 23:54:00;;;;;;;73.20;26.20;;;;;;;-5.13;89.42;99787.11;103209;1298;139388;-78
2022/12/17 23:56:27;;;;;;;69.10;24.60;;;;;;;-5.12;89.73;99793.43;103106;1299;22526;-78
2022/12/17 23:59:00;;;;;;;75.20;24.00;;;;;;;-5.11;89.84;99796.55;103287;1292;25295;-78
